McLeod, Montana
Current Conditions -  °F | °C
As of 3:53 PM on Tuesday 25 Nov 2014 (Local Time) from KLVM Reporting Station
Moderate Snow Moderate Snow  
Wind Chill: 27°   Ceiling: 1400
Heat Index: 34°   Visibility: 0.5mi
Dew Point: 31°   Wind: 8mph
Humidity: 89%   Direction: 320°NW
Pressure: 30.05"   Gusts: NA
Location:  45.66°N, 110.12°W
Report Text: KLVM 252253Z AUTO 32007KT 1/2SM SN FG FEW009 OVC014 01/M01 A3005 RMK AO2 SLP197 P0002 T00111006
Loading
Personal Weather Stations






























Interactive Weather Map New forecast layout! Learn more

10-Day Weather Forecast

Advertisements
Track Severe Weather on mobile